sensor_id;sensor_type;location;lat;lon;timestamp;temperature;humidity
38604;DHT22;24924;50.054;8.790;2023-02-21T00:02:39;6.60;99.90
38604;DHT22;24924;50.054;8.790;2023-02-21T00:05:24;6.50;99.90
38604;DHT22;24924;50.054;8.790;2023-02-21T00:08:08;6.50;99.90
38604;DHT22;24924;50.054;8.790;2023-02-21T00:10:53;6.60;99.90
38604;DHT22;24924;50.054;8.790;2023-02-21T00:13:38;6.50;99.90
38604;DHT22;24924;50.054;8.790;2023-02-21T00:19:08;6.40;99.90
38604;DHT22;24924;50.054;8.790;2023-02-21T00:21:53;6.40;99.90
38604;DHT22;24924;50.054;8.790;2023-02-21T00:27:24;6.10;99.90
38604;DHT22;24924;50.054;8.790;2023-02-21T00:30:09;6.20;99.90
38604;DHT22;24924;50.054;8.790;2023-02-21T00:32:54;6.20;99.90
38604;DHT22;24924;50.054;8.790;2023-02-21T00:38:23;6.00;99.90
38604;DHT22;24924;50.054;8.790;2023-02-21T00:43:53;6.10;99.90
38604;DHT22;24924;50.054;8.790;2023-02-21T00:46:37;6.10;99.90
38604;DHT22;24924;50.054;8.790;2023-02-21T00:49:22;6.00;99.90
38604;DHT22;24924;50.054;8.790;2023-02-21T01:00:23;5.80;99.90
38604;DHT22;24924;50.054;8.790;2023-02-21T01:03:09;5.50;99.90
38604;DHT22;24924;50.054;8.790;2023-02-21T01:08:45;5.70;99.90
38604;DHT22;24924;50.054;8.790;2023-02-21T01:14:16;5.80;99.90
38604;DHT22;24924;50.054;8.790;2023-02-21T01:19:46;6.00;99.90
38604;DHT22;24924;50.054;8.790;2023-02-21T01:22:32;5.60;99.90
38604;DHT22;24924;50.054;8.790;2023-02-21T01:28:03;5.60;99.90
38604;DHT22;24924;50.054;8.790;2023-02-21T01:30:47;5.60;99.90
38604;DHT22;24924;50.054;8.790;2023-02-21T01:33:39;6.20;99.90
38604;DHT22;24924;50.054;8.790;2023-02-21T01:44:42;6.90;99.90
38604;DHT22;24924;50.054;8.790;2023-02-21T01:47:27;7.10;99.90
38604;DHT22;24924;50.054;8.790;2023-02-21T01:50:24;7.10;99.90
38604;DHT22;24924;50.054;8.790;2023-02-21T01:53:14;7.30;99.90
38604;DHT22;24924;50.054;8.790;2023-02-21T01:56:00;7.30;99.90
38604;DHT22;24924;50.054;8.790;2023-02-21T01:58:47;6.90;99.90
38604;DHT22;24924;50.054;8.790;2023-02-21T02:04:31;7.30;99.90
38604;DHT22;24924;50.054;8.790;2023-02-21T02:16:07;7.60;99.90
38604;DHT22;24924;50.054;8.790;2023-02-21T02:18:45;7.70;99.90
38604;DHT22;24924;50.054;8.790;2023-02-21T02:21:38;7.70;99.90
38604;DHT22;24924;50.054;8.790;2023-02-21T02:33:21;7.50;99.90
38604;DHT22;24924;50.054;8.790;2023-02-21T02:38:56;7.30;99.90
38604;DHT22;24924;50.054;8.790;2023-02-21T02:41:46;7.40;99.90
38604;DHT22;24924;50.054;8.790;2023-02-21T02:44:25;7.40;99.90
38604;DHT22;24924;50.054;8.790;2023-02-21T02:46:53;7.10;99.90
38604;DHT22;24924;50.054;8.790;2023-02-21T02:49:24;7.20;99.90
38604;DHT22;24924;50.054;8.790;2023-02-21T02:51:53;6.90;99.90
38604;DHT22;24924;50.054;8.790;2023-02-21T02:56:48;6.60;99.90
38604;DHT22;24924;50.054;8.790;2023-02-21T02:59:20;6.50;99.90
38604;DHT22;24924;50.054;8.790;2023-02-21T03:04:52;6.20;99.90
38604;DHT22;24924;50.054;8.790;2023-02-21T03:07:58;5.90;99.90
38604;DHT22;24924;50.054;8.790;2023-02-21T03:13:17;5.80;99.90
38604;DHT22;24924;50.054;8.790;2023-02-21T03:18:39;5.60;99.90
38604;DHT22;24924;50.054;8.790;2023-02-21T03:21:19;5.70;99.90
38604;DHT22;24924;50.054;8.790;2023-02-21T03:23:49;5.70;99.90
38604;DHT22;24924;50.054;8.790;2023-02-21T03:26:16;5.60;99.90
38604;DHT22;24924;50.054;8.790;2023-02-21T03:28:47;5.80;99.90
38604;DHT22;24924;50.054;8.790;2023-02-21T03:31:16;5.80;99.90
38604;DHT22;24924;50.054;8.790;2023-02-21T03:33:44;5.80;99.90
38604;DHT22;24924;50.054;8.790;2023-02-21T03:36:10;5.90;99.90
38604;DHT22;24924;50.054;8.790;2023-02-21T03:38:37;6.00;99.90
38604;DHT22;24924;50.054;8.790;2023-02-21T03:41:03;6.10;99.90
38604;DHT22;24924;50.054;8.790;2023-02-21T03:48:27;6.00;99.90
38604;DHT22;24924;50.054;8.790;2023-02-21T03:53:23;5.80;99.90
38604;DHT22;24924;50.054;8.790;2023-02-21T03:58:21;5.70;99.90
38604;DHT22;24924;50.054;8.790;2023-02-21T04:03:16;5.50;99.90
38604;DHT22;24924;50.054;8.790;2023-02-21T04:05:59;5.60;99.90
38604;DHT22;24924;50.054;8.790;2023-02-21T04:13:21;5.70;99.90
38604;DHT22;24924;50.054;8.790;2023-02-21T04:15:49;5.60;99.90
38604;DHT22;24924;50.054;8.790;2023-02-21T04:18:15;5.80;99.90
38604;DHT22;24924;50.054;8.790;2023-02-21T04:23:11;5.90;99.90
38604;DHT22;24924;50.054;8.790;2023-02-21T04:25:37;6.10;99.90
38604;DHT22;24924;50.054;8.790;2023-02-21T04:28:10;6.20;99.90
38604;DHT22;24924;50.054;8.790;2023-02-21T04:33:03;6.20;99.90
38604;DHT22;24924;50.054;8.790;2023-02-21T04:35:29;6.40;99.90
38604;DHT22;24924;50.054;8.790;2023-02-21T04:40:26;6.40;99.90
38604;DHT22;24924;50.054;8.790;2023-02-21T04:50:10;6.80;99.90
38604;DHT22;24924;50.054;8.790;2023-02-21T04:52:36;6.70;99.90
38604;DHT22;24924;50.054;8.790;2023-02-21T04:55:02;6.70;99.90
38604;DHT22;24924;50.054;8.790;2023-02-21T04:57:28;6.70;99.90
38604;DHT22;24924;50.054;8.790;2023-02-21T04:59:59;6.80;99.90
38604;DHT22;24924;50.054;8.790;2023-02-21T05:02:25;6.80;99.90
38604;DHT22;24924;50.054;8.790;2023-02-21T05:04:52;6.50;99.90
38604;DHT22;24924;50.054;8.790;2023-02-21T05:07:18;6.70;99.90
38604;DHT22;24924;50.054;8.790;2023-02-21T05:14:37;6.80;99.90
38604;DHT22;24924;50.054;8.790;2023-02-21T05:17:04;6.70;99.90
38604;DHT22;24924;50.054;8.790;2023-02-21T05:21:58;7.30;99.90
38604;DHT22;24924;50.054;8.790;2023-02-21T05:24:27;6.90;99.90
38604;DHT22;24924;50.054;8.790;2023-02-21T05:26:54;7.00;99.90
38604;DHT22;24924;50.054;8.790;2023-02-21T05:29:20;6.80;99.90
38604;DHT22;24924;50.054;8.790;2023-02-21T05:31:46;6.90;99.90
38604;DHT22;24924;50.054;8.790;2023-02-21T05:34:14;6.80;99.90
38604;DHT22;24924;50.054;8.790;2023-02-21T05:39:07;6.40;99.90
38604;DHT22;24924;50.054;8.790;2023-02-21T05:41:34;6.50;99.90
38604;DHT22;24924;50.054;8.790;2023-02-21T05:44:01;6.30;99.90
38604;DHT22;24924;50.054;8.790;2023-02-21T05:46:30;6.10;99.90
38604;DHT22;24924;50.054;8.790;2023-02-21T05:48:57;6.00;99.90
38604;DHT22;24924;50.054;8.790;2023-02-21T05:51:24;6.00;99.90
38604;DHT22;24924;50.054;8.790;2023-02-21T05:53:50;5.90;99.90
38604;DHT22;24924;50.054;8.790;2023-02-21T05:56:17;5.90;99.90
38604;DHT22;24924;50.054;8.790;2023-02-21T05:58:43;6.00;99.90
38604;DHT22;24924;50.054;8.790;2023-02-21T06:01:09;5.90;99.90
38604;DHT22;24924;50.054;8.790;2023-02-21T06:03:35;5.90;99.90
38604;DHT22;24924;50.054;8.790;2023-02-21T06:06:01;5.40;99.90
38604;DHT22;24924;50.054;8.790;2023-02-21T06:08:27;5.30;99.90
38604;DHT22;24924;50.054;8.790;2023-02-21T06:10:53;5.20;99.90
38604;DHT22;24924;50.054;8.790;2023-02-21T06:15:45;5.60;99.90
38604;DHT22;24924;50.054;8.790;2023-02-21T06:18:13;5.40;99.90
38604;DHT22;24924;50.054;8.790;2023-02-21T06:20:39;5.30;99.90
38604;DHT22;24924;50.054;8.790;2023-02-21T06:23:04;5.30;99.90
38604;DHT22;24924;50.054;8.790;2023-02-21T06:25:30;5.20;99.90
38604;DHT22;24924;50.054;8.790;2023-02-21T06:32:48;4.90;99.90
38604;DHT22;24924;50.054;8.790;2023-02-21T06:40:07;5.90;99.90
38604;DHT22;24924;50.054;8.790;2023-02-21T06:42:33;5.90;99.90
38604;DHT22;24924;50.054;8.790;2023-02-21T06:47:26;6.10;99.90
38604;DHT22;24924;50.054;8.790;2023-02-21T06:52:18;6.50;99.90
38604;DHT22;24924;50.054;8.790;2023-02-21T06:54:44;6.80;99.90
38604;DHT22;24924;50.054;8.790;2023-02-21T07:04:29;7.00;99.90
38604;DHT22;24924;50.054;8.790;2023-02-21T07:06:55;7.10;99.90
38604;DHT22;24924;50.054;8.790;2023-02-21T07:16:40;7.30;99.90
38604;DHT22;24924;50.054;8.790;2023-02-21T07:19:06;7.40;99.90
38604;DHT22;24924;50.054;8.790;2023-02-21T07:21:32;9.10;99.90
38604;DHT22;24924;50.054;8.790;2023-02-21T07:28:50;7.50;99.90
38604;DHT22;24924;50.054;8.790;2023-02-21T07:36:10;7.70;99.90
38604;DHT22;24924;50.054;8.790;2023-02-21T07:38:36;7.60;99.90
38604;DHT22;24924;50.054;8.790;2023-02-21T07:41:02;7.40;99.90
38604;DHT22;24924;50.054;8.790;2023-02-21T07:43:29;7.70;99.90
38604;DHT22;24924;50.054;8.790;2023-02-21T07:45:55;7.60;99.90
38604;DHT22;24924;50.054;8.790;2023-02-21T07:48:22;7.70;99.90
38604;DHT22;24924;50.054;8.790;2023-02-21T07:50:48;7.80;99.90
38604;DHT22;24924;50.054;8.790;2023-02-21T07:53:15;7.90;99.90
38604;DHT22;24924;50.054;8.790;2023-02-21T07:55:41;7.60;99.90
38604;DHT22;24924;50.054;8.790;2023-02-21T07:58:07;8.10;99.90
38604;DHT22;24924;50.054;8.790;2023-02-21T08:07:51;5.40;99.90
38604;DHT22;24924;50.054;8.790;2023-02-21T08:10:23;8.20;99.90
38604;DHT22;24924;50.054;8.790;2023-02-21T08:12:50;8.20;99.90
38604;DHT22;24924;50.054;8.790;2023-02-21T08:15:16;8.40;99.90
38604;DHT22;24924;50.054;8.790;2023-02-21T08:17:42;8.40;99.90
38604;DHT22;24924;50.054;8.790;2023-02-21T08:20:08;8.10;99.90
38604;DHT22;24924;50.054;8.790;2023-02-21T08:22:37;8.40;99.90
38604;DHT22;24924;50.054;8.790;2023-02-21T08:25:03;8.30;99.90
38604;DHT22;24924;50.054;8.790;2023-02-21T08:27:28;8.40;99.90
38604;DHT22;24924;50.054;8.790;2023-02-21T08:34:48;8.50;99.90
38604;DHT22;24924;50.054;8.790;2023-02-21T08:37:14;8.40;99.90
38604;DHT22;24924;50.054;8.790;2023-02-21T08:39:50;8.50;99.90
38604;DHT22;24924;50.054;8.790;2023-02-21T08:42:17;8.70;99.90
38604;DHT22;24924;50.054;8.790;2023-02-21T08:44:44;8.80;99.90
38604;DHT22;24924;50.054;8.790;2023-02-21T08:47:11;8.80;99.90
38604;DHT22;24924;50.054;8.790;2023-02-21T08:52:07;8.90;99.90
38604;DHT22;24924;50.054;8.790;2023-02-21T08:54:33;9.10;99.90
38604;DHT22;24924;50.054;8.790;2023-02-21T08:56:59;9.10;99.90
38604;DHT22;24924;50.054;8.790;2023-02-21T08:59:24;9.00;99.90
38604;DHT22;24924;50.054;8.790;2023-02-21T09:01:52;9.20;99.90
38604;DHT22;24924;50.054;8.790;2023-02-21T09:09:09;9.60;99.90
38604;DHT22;24924;50.054;8.790;2023-02-21T09:14:02;9.50;99.90
38604;DHT22;24924;50.054;8.790;2023-02-21T09:18:57;9.60;99.90
38604;DHT22;24924;50.054;8.790;2023-02-21T09:23:52;9.70;99.90
38604;DHT22;24924;50.054;8.790;2023-02-21T09:26:19;9.60;99.90
38604;DHT22;24924;50.054;8.790;2023-02-21T09:33:39;9.60;99.90
38604;DHT22;24924;50.054;8.790;2023-02-21T09:36:07;9.60;99.90
38604;DHT22;24924;50.054;8.790;2023-02-21T09:38:32;9.60;99.90
38604;DHT22;24924;50.054;8.790;2023-02-21T09:41:00;9.70;99.90
38604;DHT22;24924;50.054;8.790;2023-02-21T09:43:34;9.70;99.90
38604;DHT22;24924;50.054;8.790;2023-02-21T09:46:14;9.70;99.90
38604;DHT22;24924;50.054;8.790;2023-02-21T09:48:42;9.80;99.90
38604;DHT22;24924;50.054;8.790;2023-02-21T09:51:10;10.00;99.90
38604;DHT22;24924;50.054;8.790;2023-02-21T09:53:38;10.10;99.90
38604;DHT22;24924;50.054;8.790;2023-02-21T09:56:24;10.40;99.90
38604;DHT22;24924;50.054;8.790;2023-02-21T10:01:49;10.70;99.90
38604;DHT22;24924;50.054;8.790;2023-02-21T10:09:24;11.20;99.90
38604;DHT22;24924;50.054;8.790;2023-02-21T10:15:22;11.60;99.90
38604;DHT22;24924;50.054;8.790;2023-02-21T10:18:27;11.80;99.90
38604;DHT22;24924;50.054;8.790;2023-02-21T10:20:58;12.70;99.90
38604;DHT22;24924;50.054;8.790;2023-02-21T10:23:37;13.30;99.90
38604;DHT22;24924;50.054;8.790;2023-02-21T10:26:09;13.50;99.90
38604;DHT22;24924;50.054;8.790;2023-02-21T10:28:36;13.40;99.90
38604;DHT22;24924;50.054;8.790;2023-02-21T10:31:19;13.30;99.90
38604;DHT22;24924;50.054;8.790;2023-02-21T10:36:20;13.20;99.90
38604;DHT22;24924;50.054;8.790;2023-02-21T10:39:11;13.40;99.90
38604;DHT22;24924;50.054;8.790;2023-02-21T10:41:40;14.20;99.90
38604;DHT22;24924;50.054;8.790;2023-02-21T10:44:20;15.00;99.90
38604;DHT22;24924;50.054;8.790;2023-02-21T10:46:51;15.40;99.90
38604;DHT22;24924;50.054;8.790;2023-02-21T10:49:28;16.10;99.90
38604;DHT22;24924;50.054;8.790;2023-02-21T10:54:29;16.40;99.90
38604;DHT22;24924;50.054;8.790;2023-02-21T10:56:55;16.50;99.90
38604;DHT22;24924;50.054;8.790;2023-02-21T10:59:29;16.60;99.90
38604;DHT22;24924;50.054;8.790;2023-02-21T11:01:57;17.20;99.90
38604;DHT22;24924;50.054;8.790;2023-02-21T11:04:34;17.20;99.90
38604;DHT22;24924;50.054;8.790;2023-02-21T11:07:11;17.40;99.90
38604;DHT22;24924;50.054;8.790;2023-02-21T11:09:40;17.40;99.90
38604;DHT22;24924;50.054;8.790;2023-02-21T11:14:43;17.00;99.90
38604;DHT22;24924;50.054;8.790;2023-02-21T11:17:18;19.90;99.90
38604;DHT22;24924;50.054;8.790;2023-02-21T11:19:49;17.10;99.90
38604;DHT22;24924;50.054;8.790;2023-02-21T11:22:17;17.00;99.90
38604;DHT22;24924;50.054;8.790;2023-02-21T11:24:56;17.00;99.90
38604;DHT22;24924;50.054;8.790;2023-02-21T11:27:23;18.00;99.90
38604;DHT22;24924;50.054;8.790;2023-02-21T11:29:51;18.00;99.90
38604;DHT22;24924;50.054;8.790;2023-02-21T11:32:39;18.30;99.90
38604;DHT22;24924;50.054;8.790;2023-02-21T11:35:21;18.30;99.90
38604;DHT22;24924;50.054;8.790;2023-02-21T11:38:00;18.40;99.80
38604;DHT22;24924;50.054;8.790;2023-02-21T11:40:33;18.80;99.50
38604;DHT22;24924;50.054;8.790;2023-02-21T11:46:01;18.40;99.20
38604;DHT22;24924;50.054;8.790;2023-02-21T11:48:34;18.50;99.80
38604;DHT22;24924;50.054;8.790;2023-02-21T11:51:05;18.60;99.50
38604;DHT22;24924;50.054;8.790;2023-02-21T11:53:39;18.50;98.90
38604;DHT22;24924;50.054;8.790;2023-02-21T11:56:37;19.30;99.40
38604;DHT22;24924;50.054;8.790;2023-02-21T11:59:18;19.30;98.40
38604;DHT22;24924;50.054;8.790;2023-02-21T12:08:25;19.40;97.60
38604;DHT22;24924;50.054;8.790;2023-02-21T12:10:46;18.90;98.50
38604;DHT22;24924;50.054;8.790;2023-02-21T12:21:12;19.30;97.60
38604;DHT22;24924;50.054;8.790;2023-02-21T12:26:37;19.40;98.20
38604;DHT22;24924;50.054;8.790;2023-02-21T12:32:01;19.40;97.30
38604;DHT22;24924;50.054;8.790;2023-02-21T12:40:24;19.30;97.20
38604;DHT22;24924;50.054;8.790;2023-02-21T12:45:34;19.60;98.30
38604;DHT22;24924;50.054;8.790;2023-02-21T12:48:05;19.90;97.20
38604;DHT22;24924;50.054;8.790;2023-02-21T12:50:41;20.00;96.90
38604;DHT22;24924;50.054;8.790;2023-02-21T12:53:38;19.50;97.10
38604;DHT22;24924;50.054;8.790;2023-02-21T12:56:34;19.50;97.40
38604;DHT22;24924;50.054;8.790;2023-02-21T12:59:17;19.30;97.30
38604;DHT22;24924;50.054;8.790;2023-02-21T13:04:46;19.30;97.70
38604;DHT22;24924;50.054;8.790;2023-02-21T13:07:23;19.80;96.70
38604;DHT22;24924;50.054;8.790;2023-02-21T13:09:59;19.80;96.70
38604;DHT22;24924;50.054;8.790;2023-02-21T13:12:36;19.70;97.30
38604;DHT22;24924;50.054;8.790;2023-02-21T13:17:37;19.50;97.80
38604;DHT22;24924;50.054;8.790;2023-02-21T13:20:08;19.60;97.80
38604;DHT22;24924;50.054;8.790;2023-02-21T13:22:53;19.30;97.50
38604;DHT22;24924;50.054;8.790;2023-02-21T13:26:01;19.50;98.10
38604;DHT22;24924;50.054;8.790;2023-02-21T13:28:31;19.90;96.80
38604;DHT22;24924;50.054;8.790;2023-02-21T13:31:03;19.60;97.70
38604;DHT22;24924;50.054;8.790;2023-02-21T13:33:56;19.60;97.50
38604;DHT22;24924;50.054;8.790;2023-02-21T13:36:44;19.50;97.20
38604;DHT22;24924;50.054;8.790;2023-02-21T13:41:44;19.70;97.80
38604;DHT22;24924;50.054;8.790;2023-02-21T13:44:38;19.70;97.90
38604;DHT22;24924;50.054;8.790;2023-02-21T13:47:09;19.80;97.30
38604;DHT22;24924;50.054;8.790;2023-02-21T13:52:22;19.60;97.30
38604;DHT22;24924;50.054;8.790;2023-02-21T13:55:27;19.60;97.50
38604;DHT22;24924;50.054;8.790;2023-02-21T14:08:25;19.80;96.60
38604;DHT22;24924;50.054;8.790;2023-02-21T14:11:15;19.40;98.20
38604;DHT22;24924;50.054;8.790;2023-02-21T14:13:48;19.60;97.60
38604;DHT22;24924;50.054;8.790;2023-02-21T14:16:19;19.40;97.30
38604;DHT22;24924;50.054;8.790;2023-02-21T14:19:02;19.00;97.90
38604;DHT22;24924;50.054;8.790;2023-02-21T14:21:33;18.70;98.30
38604;DHT22;24924;50.054;8.790;2023-02-21T14:24:04;18.60;98.50
38604;DHT22;24924;50.054;8.790;2023-02-21T14:26:53;18.40;98.50
38604;DHT22;24924;50.054;8.790;2023-02-21T14:29:34;18.00;99.50
38604;DHT22;24924;50.054;8.790;2023-02-21T14:34:36;17.80;99.40
38604;DHT22;24924;50.054;8.790;2023-02-21T14:43:16;17.50;99.90
38604;DHT22;24924;50.054;8.790;2023-02-21T14:48:51;17.20;99.90
38604;DHT22;24924;50.054;8.790;2023-02-21T14:57:39;16.90;99.90
38604;DHT22;24924;50.054;8.790;2023-02-21T15:00:44;17.00;99.90
38604;DHT22;24924;50.054;8.790;2023-02-21T15:03:24;17.00;99.90
38604;DHT22;24924;50.054;8.790;2023-02-21T15:08:26;16.90;99.90
38604;DHT22;24924;50.054;8.790;2023-02-21T15:11:02;16.90;99.90
38604;DHT22;24924;50.054;8.790;2023-02-21T15:13:39;16.80;99.90
38604;DHT22;24924;50.054;8.790;2023-02-21T15:16:07;16.80;99.90
38604;DHT22;24924;50.054;8.790;2023-02-21T15:18:39;16.70;99.90
38604;DHT22;24924;50.054;8.790;2023-02-21T15:21:18;16.50;99.90
38604;DHT22;24924;50.054;8.790;2023-02-21T15:23:46;16.40;99.90
38604;DHT22;24924;50.054;8.790;2023-02-21T15:28:41;16.30;99.90
38604;DHT22;24924;50.054;8.790;2023-02-21T15:31:08;16.20;99.90
38604;DHT22;24924;50.054;8.790;2023-02-21T15:33:40;16.10;99.90
38604;DHT22;24924;50.054;8.790;2023-02-21T15:36:14;16.10;99.90
38604;DHT22;24924;50.054;8.790;2023-02-21T15:39:03;16.00;99.90
38604;DHT22;24924;50.054;8.790;2023-02-21T15:44:06;15.90;99.90
38604;DHT22;24924;50.054;8.790;2023-02-21T15:46:44;15.90;99.90
38604;DHT22;24924;50.054;8.790;2023-02-21T15:49:36;15.90;99.90
38604;DHT22;24924;50.054;8.790;2023-02-21T15:52:03;15.70;99.90
38604;DHT22;24924;50.054;8.790;2023-02-21T15:54:32;15.70;99.90
38604;DHT22;24924;50.054;8.790;2023-02-21T15:59:29;15.70;99.90
38604;DHT22;24924;50.054;8.790;2023-02-21T16:04:41;15.70;99.90
38604;DHT22;24924;50.054;8.790;2023-02-21T16:07:19;15.50;99.90
38604;DHT22;24924;50.054;8.790;2023-02-21T16:09:48;15.60;99.90
38604;DHT22;24924;50.054;8.790;2023-02-21T16:12:28;15.50;99.90
38604;DHT22;24924;50.054;8.790;2023-02-21T16:14:59;15.40;99.90
38604;DHT22;24924;50.054;8.790;2023-02-21T16:17:31;15.00;99.90
38604;DHT22;24924;50.054;8.790;2023-02-21T16:22:36;15.00;99.90
38604;DHT22;24924;50.054;8.790;2023-02-21T16:27:38;14.90;99.90
38604;DHT22;24924;50.054;8.790;2023-02-21T16:30:06;14.90;99.90
38604;DHT22;24924;50.054;8.790;2023-02-21T16:32:33;14.40;99.90
38604;DHT22;24924;50.054;8.790;2023-02-21T16:35:00;14.40;99.90
38604;DHT22;24924;50.054;8.790;2023-02-21T16:37:26;14.20;99.90
38604;DHT22;24924;50.054;8.790;2023-02-21T16:39:52;14.50;99.90
38604;DHT22;24924;50.054;8.790;2023-02-21T16:42:18;14.50;99.90
38604;DHT22;24924;50.054;8.790;2023-02-21T16:44:45;14.50;99.90
38604;DHT22;24924;50.054;8.790;2023-02-21T16:47:15;14.40;99.90
38604;DHT22;24924;50.054;8.790;2023-02-21T16:49:42;14.40;99.90
38604;DHT22;24924;50.054;8.790;2023-02-21T16:52:13;14.20;99.90
38604;DHT22;24924;50.054;8.790;2023-02-21T16:54:40;14.00;99.90
38604;DHT22;24924;50.054;8.790;2023-02-21T16:57:06;13.70;99.90
38604;DHT22;24924;50.054;8.790;2023-02-21T16:59:32;13.70;99.90
38604;DHT22;24924;50.054;8.790;2023-02-21T17:01:58;13.60;99.90
38604;DHT22;24924;50.054;8.790;2023-02-21T17:04:25;13.60;99.90
38604;DHT22;24924;50.054;8.790;2023-02-21T17:06:58;13.30;99.90
38604;DHT22;24924;50.054;8.790;2023-02-21T17:09:27;12.90;99.90
38604;DHT22;24924;50.054;8.790;2023-02-21T17:11:53;12.70;99.90
38604;DHT22;24924;50.054;8.790;2023-02-21T17:14:20;12.40;99.90
38604;DHT22;24924;50.054;8.790;2023-02-21T17:16:47;12.20;99.90
38604;DHT22;24924;50.054;8.790;2023-02-21T17:19:18;12.00;99.90
38604;DHT22;24924;50.054;8.790;2023-02-21T17:21:46;11.80;99.90
38604;DHT22;24924;50.054;8.790;2023-02-21T17:24:13;11.70;99.90
38604;DHT22;24924;50.054;8.790;2023-02-21T17:29:06;11.40;99.90
38604;DHT22;24924;50.054;8.790;2023-02-21T17:31:33;11.30;99.90
38604;DHT22;24924;50.054;8.790;2023-02-21T17:33:59;11.30;99.90
38604;DHT22;24924;50.054;8.790;2023-02-21T17:36:26;11.30;99.90
38604;DHT22;24924;50.054;8.790;2023-02-21T17:38:53;11.30;99.90
38604;DHT22;24924;50.054;8.790;2023-02-21T17:41:19;11.00;99.90
38604;DHT22;24924;50.054;8.790;2023-02-21T17:43:45;10.90;99.90
38604;DHT22;24924;50.054;8.790;2023-02-21T17:46:13;10.80;99.90
38604;DHT22;24924;50.054;8.790;2023-02-21T17:48:40;10.70;99.90
38604;DHT22;24924;50.054;8.790;2023-02-21T17:51:07;10.70;99.90
38604;DHT22;24924;50.054;8.790;2023-02-21T17:55:59;10.40;99.90
38604;DHT22;24924;50.054;8.790;2023-02-21T17:58:26;10.40;99.90
38604;DHT22;24924;50.054;8.790;2023-02-21T18:00:52;10.40;99.90
38604;DHT22;24924;50.054;8.790;2023-02-21T18:05:47;10.40;99.90
38604;DHT22;24924;50.054;8.790;2023-02-21T18:08:15;10.30;99.90
38604;DHT22;24924;50.054;8.790;2023-02-21T18:10:41;10.00;99.90
38604;DHT22;24924;50.054;8.790;2023-02-21T18:13:18;9.90;99.90
38604;DHT22;24924;50.054;8.790;2023-02-21T18:15:44;9.90;99.90
38604;DHT22;24924;50.054;8.790;2023-02-21T18:18:10;9.70;99.90
38604;DHT22;24924;50.054;8.790;2023-02-21T18:20:36;9.70;99.90
38604;DHT22;24924;50.054;8.790;2023-02-21T18:23:03;9.60;99.90
38604;DHT22;24924;50.054;8.790;2023-02-21T18:25:32;9.50;99.90
38604;DHT22;24924;50.054;8.790;2023-02-21T18:27:58;9.30;99.90
38604;DHT22;24924;50.054;8.790;2023-02-21T18:32:51;9.30;99.90
38604;DHT22;24924;50.054;8.790;2023-02-21T18:35:17;9.30;99.90
38604;DHT22;24924;50.054;8.790;2023-02-21T18:37:44;9.30;99.90
38604;DHT22;24924;50.054;8.790;2023-02-21T18:40:17;9.20;99.90
38604;DHT22;24924;50.054;8.790;2023-02-21T18:42:43;9.10;99.90
38604;DHT22;24924;50.054;8.790;2023-02-21T18:45:09;9.00;99.90
38604;DHT22;24924;50.054;8.790;2023-02-21T18:47:38;8.90;99.90
38604;DHT22;24924;50.054;8.790;2023-02-21T18:50:05;8.90;99.90
38604;DHT22;24924;50.054;8.790;2023-02-21T18:52:31;8.80;99.90
38604;DHT22;24924;50.054;8.790;2023-02-21T18:54:57;8.80;99.90
38604;DHT22;24924;50.054;8.790;2023-02-21T18:57:28;8.80;99.90
38604;DHT22;24924;50.054;8.790;2023-02-21T18:59:55;8.70;99.90
38604;DHT22;24924;50.054;8.790;2023-02-21T19:04:47;8.70;99.90
38604;DHT22;24924;50.054;8.790;2023-02-21T19:07:14;8.80;99.90
38604;DHT22;24924;50.054;8.790;2023-02-21T19:09:43;8.60;99.90
38604;DHT22;24924;50.054;8.790;2023-02-21T19:12:09;8.50;99.90
38604;DHT22;24924;50.054;8.790;2023-02-21T19:14:36;8.50;99.90
38604;DHT22;24924;50.054;8.790;2023-02-21T19:17:02;8.50;99.90
38604;DHT22;24924;50.054;8.790;2023-02-21T19:19:28;8.50;99.90
38604;DHT22;24924;50.054;8.790;2023-02-21T19:21:57;8.50;99.90
38604;DHT22;24924;50.054;8.790;2023-02-21T19:24:23;8.30;99.90
38604;DHT22;24924;50.054;8.790;2023-02-21T19:26:49;8.30;99.90
38604;DHT22;24924;50.054;8.790;2023-02-21T19:31:41;8.30;99.90
38604;DHT22;24924;50.054;8.790;2023-02-21T19:34:08;8.10;99.90
38604;DHT22;24924;50.054;8.790;2023-02-21T19:36:35;8.10;99.90
38604;DHT22;24924;50.054;8.790;2023-02-21T19:39:07;8.10;99.90
38604;DHT22;24924;50.054;8.790;2023-02-21T19:41:34;7.90;99.90
38604;DHT22;24924;50.054;8.790;2023-02-21T19:44:05;8.00;99.90
38604;DHT22;24924;50.054;8.790;2023-02-21T19:46:32;7.60;99.90
38604;DHT22;24924;50.054;8.790;2023-02-21T19:48:58;7.70;99.90
38604;DHT22;24924;50.054;8.790;2023-02-21T19:53:52;7.80;99.90
38604;DHT22;24924;50.054;8.790;2023-02-21T20:01:12;7.30;99.90
38604;DHT22;24924;50.054;8.790;2023-02-21T20:06:06;7.70;99.90
38604;DHT22;24924;50.054;8.790;2023-02-21T20:15:51;7.90;99.90
38604;DHT22;24924;50.054;8.790;2023-02-21T20:20:43;7.40;99.90
38604;DHT22;24924;50.054;8.790;2023-02-21T20:23:11;7.50;99.90
38604;DHT22;24924;50.054;8.790;2023-02-21T20:25:37;7.50;99.90
38604;DHT22;24924;50.054;8.790;2023-02-21T20:28:03;7.10;99.90
38604;DHT22;24924;50.054;8.790;2023-02-21T20:47:37;7.80;99.90
38604;DHT22;24924;50.054;8.790;2023-02-21T20:50:04;6.90;99.90
38604;DHT22;24924;50.054;8.790;2023-02-21T20:52:32;8.60;99.90
38604;DHT22;24924;50.054;8.790;2023-02-21T21:09:48;6.70;99.90
38604;DHT22;24924;50.054;8.790;2023-02-21T21:12:17;6.50;99.90
38604;DHT22;24924;50.054;8.790;2023-02-21T21:14:45;6.70;99.90
38604;DHT22;24924;50.054;8.790;2023-02-21T21:17:16;6.70;99.90
38604;DHT22;24924;50.054;8.790;2023-02-21T21:19:44;6.70;99.90
38604;DHT22;24924;50.054;8.790;2023-02-21T21:22:13;6.60;99.90
38604;DHT22;24924;50.054;8.790;2023-02-21T21:24:40;7.30;99.90
38604;DHT22;24924;50.054;8.790;2023-02-21T21:29:38;7.50;99.90
38604;DHT22;24924;50.054;8.790;2023-02-21T21:32:13;7.10;99.90
38604;DHT22;24924;50.054;8.790;2023-02-21T21:34:43;3.50;99.90
38604;DHT22;24924;50.054;8.790;2023-02-21T21:42:06;6.40;99.90
38604;DHT22;24924;50.054;8.790;2023-02-21T21:44:36;6.30;99.90
38604;DHT22;24924;50.054;8.790;2023-02-21T21:47:02;6.10;99.90
38604;DHT22;24924;50.054;8.790;2023-02-21T21:49:29;6.30;99.90
38604;DHT22;24924;50.054;8.790;2023-02-21T21:54:25;6.10;99.90
38604;DHT22;24924;50.054;8.790;2023-02-21T21:56:52;6.10;99.90
38604;DHT22;24924;50.054;8.790;2023-02-21T21:59:21;6.10;99.90
38604;DHT22;24924;50.054;8.790;2023-02-21T22:01:50;3.60;99.90
38604;DHT22;24924;50.054;8.790;2023-02-21T22:06:44;6.00;99.90
38604;DHT22;24924;50.054;8.790;2023-02-21T22:09:11;6.00;99.90
38604;DHT22;24924;50.054;8.790;2023-02-21T22:11:44;5.90;99.90
38604;DHT22;24924;50.054;8.790;2023-02-21T22:16:40;5.90;99.90
38604;DHT22;24924;50.054;8.790;2023-02-21T22:21:33;6.20;99.90
38604;DHT22;24924;50.054;8.790;2023-02-21T22:23:59;6.60;99.90
38604;DHT22;24924;50.054;8.790;2023-02-21T22:26:27;6.10;99.90
38604;DHT22;24924;50.054;8.790;2023-02-21T22:28:56;6.60;99.90